sensor_id;sensor_type;location;lat;lon;timestamp;temperature;humidity
18085;DHT22;9169;44.492;11.372;2022-08-01T00:01:30;31.80;28.80
18085;DHT22;9169;44.492;11.372;2022-08-01T00:03:57;31.70;28.80
18085;DHT22;9169;44.492;11.372;2022-08-01T00:06:25;31.60;28.80
18085;DHT22;9169;44.492;11.372;2022-08-01T00:08:52;31.60;28.90
18085;DHT22;9169;44.492;11.372;2022-08-01T00:11:19;31.50;28.90
18085;DHT22;9169;44.492;11.372;2022-08-01T00:13:46;31.40;29.00
18085;DHT22;9169;44.492;11.372;2022-08-01T00:16:12;31.40;29.10
18085;DHT22;9169;44.492;11.372;2022-08-01T00:18:39;31.40;29.00
18085;DHT22;9169;44.492;11.372;2022-08-01T00:21:06;31.40;29.50
18085;DHT22;9169;44.492;11.372;2022-08-01T00:23:34;31.40;29.00
18085;DHT22;9169;44.492;11.372;2022-08-01T00:26:01;31.40;29.00
18085;DHT22;9169;44.492;11.372;2022-08-01T00:28:28;31.40;29.00
18085;DHT22;9169;44.492;11.372;2022-08-01T00:30:55;31.30;28.90
18085;DHT22;9169;44.492;11.372;2022-08-01T00:33:22;31.30;28.90
18085;DHT22;9169;44.492;11.372;2022-08-01T00:35:49;31.40;28.90
18085;DHT22;9169;44.492;11.372;2022-08-01T00:38:15;31.30;28.90
18085;DHT22;9169;44.492;11.372;2022-08-01T00:40:44;31.30;28.90
18085;DHT22;9169;44.492;11.372;2022-08-01T00:43:11;31.30;28.90
18085;DHT22;9169;44.492;11.372;2022-08-01T00:45:37;31.30;28.90
18085;DHT22;9169;44.492;11.372;2022-08-01T00:48:04;31.30;28.90
18085;DHT22;9169;44.492;11.372;2022-08-01T00:50:31;31.30;28.90
18085;DHT22;9169;44.492;11.372;2022-08-01T00:52:59;31.20;28.90
18085;DHT22;9169;44.492;11.372;2022-08-01T00:55:25;31.20;28.90
18085;DHT22;9169;44.492;11.372;2022-08-01T00:57:57;31.20;28.90
18085;DHT22;9169;44.492;11.372;2022-08-01T01:00:24;31.20;28.90
18085;DHT22;9169;44.492;11.372;2022-08-01T01:02:52;31.20;28.90
18085;DHT22;9169;44.492;11.372;2022-08-01T01:05:18;31.20;28.90
18085;DHT22;9169;44.492;11.372;2022-08-01T01:07:47;31.20;28.90
18085;DHT22;9169;44.492;11.372;2022-08-01T01:10:15;31.20;28.90
18085;DHT22;9169;44.492;11.372;2022-08-01T01:12:44;31.10;28.90
18085;DHT22;9169;44.492;11.372;2022-08-01T01:15:15;31.10;28.90
18085;DHT22;9169;44.492;11.372;2022-08-01T01:17:45;31.10;28.80
18085;DHT22;9169;44.492;11.372;2022-08-01T01:20:13;31.00;28.90
18085;DHT22;9169;44.492;11.372;2022-08-01T01:22:46;31.00;28.90
18085;DHT22;9169;44.492;11.372;2022-08-01T01:25:32;30.90;29.00
18085;DHT22;9169;44.492;11.372;2022-08-01T01:28:08;30.90;29.00
18085;DHT22;9169;44.492;11.372;2022-08-01T01:30:37;30.90;29.00
18085;DHT22;9169;44.492;11.372;2022-08-01T01:33:06;30.90;29.00
18085;DHT22;9169;44.492;11.372;2022-08-01T01:35:35;30.90;29.00
18085;DHT22;9169;44.492;11.372;2022-08-01T01:38:04;30.90;29.00
18085;DHT22;9169;44.492;11.372;2022-08-01T01:40:31;30.80;29.00
18085;DHT22;9169;44.492;11.372;2022-08-01T01:42:59;30.70;29.00
18085;DHT22;9169;44.492;11.372;2022-08-01T01:45:26;30.70;29.00
18085;DHT22;9169;44.492;11.372;2022-08-01T01:47:55;30.80;29.10
18085;DHT22;9169;44.492;11.372;2022-08-01T01:50:23;30.70;29.10
18085;DHT22;9169;44.492;11.372;2022-08-01T01:52:50;30.70;29.10
18085;DHT22;9169;44.492;11.372;2022-08-01T01:55:18;30.60;29.10
18085;DHT22;9169;44.492;11.372;2022-08-01T01:57:45;30.60;29.10
18085;DHT22;9169;44.492;11.372;2022-08-01T02:00:12;30.60;29.20
18085;DHT22;9169;44.492;11.372;2022-08-01T02:02:40;30.60;29.10
18085;DHT22;9169;44.492;11.372;2022-08-01T02:05:10;30.60;29.10
18085;DHT22;9169;44.492;11.372;2022-08-01T02:07:37;30.50;29.10
18085;DHT22;9169;44.492;11.372;2022-08-01T02:10:05;30.50;29.10
18085;DHT22;9169;44.492;11.372;2022-08-01T02:12:33;30.50;29.10
18085;DHT22;9169;44.492;11.372;2022-08-01T02:15:02;30.50;29.10
18085;DHT22;9169;44.492;11.372;2022-08-01T02:17:29;30.50;29.10
18085;DHT22;9169;44.492;11.372;2022-08-01T02:19:57;30.50;29.10
18085;DHT22;9169;44.492;11.372;2022-08-01T02:22:26;30.50;29.10
18085;DHT22;9169;44.492;11.372;2022-08-01T02:24:54;30.50;29.00
18085;DHT22;9169;44.492;11.372;2022-08-01T02:27:23;30.50;29.10
18085;DHT22;9169;44.492;11.372;2022-08-01T02:29:52;30.40;29.00
18085;DHT22;9169;44.492;11.372;2022-08-01T02:32:20;30.40;29.00
18085;DHT22;9169;44.492;11.372;2022-08-01T02:34:49;30.30;29.00
18085;DHT22;9169;44.492;11.372;2022-08-01T02:37:17;30.40;29.10
18085;DHT22;9169;44.492;11.372;2022-08-01T02:39:47;30.40;29.10
18085;DHT22;9169;44.492;11.372;2022-08-01T02:42:14;30.40;29.10
18085;DHT22;9169;44.492;11.372;2022-08-01T02:44:42;30.40;29.10
18085;DHT22;9169;44.492;11.372;2022-08-01T02:47:10;30.40;29.10
18085;DHT22;9169;44.492;11.372;2022-08-01T02:49:39;30.30;29.00
18085;DHT22;9169;44.492;11.372;2022-08-01T02:52:09;30.30;29.00
18085;DHT22;9169;44.492;11.372;2022-08-01T02:54:37;30.30;29.10
18085;DHT22;9169;44.492;11.372;2022-08-01T02:57:05;30.30;29.10
18085;DHT22;9169;44.492;11.372;2022-08-01T02:59:33;30.30;29.10
18085;DHT22;9169;44.492;11.372;2022-08-01T03:02:00;30.20;29.10
18085;DHT22;9169;44.492;11.372;2022-08-01T03:04:29;30.20;29.10
18085;DHT22;9169;44.492;11.372;2022-08-01T03:06:56;30.10;29.10
18085;DHT22;9169;44.492;11.372;2022-08-01T03:09:24;30.10;29.10
18085;DHT22;9169;44.492;11.372;2022-08-01T03:11:51;29.80;29.00
18085;DHT22;9169;44.492;11.372;2022-08-01T03:14:20;30.00;29.10
18085;DHT22;9169;44.492;11.372;2022-08-01T03:16:49;30.00;29.10
18085;DHT22;9169;44.492;11.372;2022-08-01T03:19:16;30.00;29.10
18085;DHT22;9169;44.492;11.372;2022-08-01T03:21:44;30.00;29.20
18085;DHT22;9169;44.492;11.372;2022-08-01T03:24:11;30.00;29.20
18085;DHT22;9169;44.492;11.372;2022-08-01T03:26:39;30.00;29.20
18085;DHT22;9169;44.492;11.372;2022-08-01T03:29:08;30.00;29.20
18085;DHT22;9169;44.492;11.372;2022-08-01T03:31:38;30.00;29.20
18085;DHT22;9169;44.492;11.372;2022-08-01T03:34:08;30.00;29.20
18085;DHT22;9169;44.492;11.372;2022-08-01T03:36:36;30.00;29.20
18085;DHT22;9169;44.492;11.372;2022-08-01T03:39:06;30.00;29.20
18085;DHT22;9169;44.492;11.372;2022-08-01T03:41:37;30.00;29.20
18085;DHT22;9169;44.492;11.372;2022-08-01T03:44:07;29.90;29.10
18085;DHT22;9169;44.492;11.372;2022-08-01T03:46:40;29.90;29.10
18085;DHT22;9169;44.492;11.372;2022-08-01T03:49:10;29.90;29.10
18085;DHT22;9169;44.492;11.372;2022-08-01T03:51:37;29.90;29.20
18085;DHT22;9169;44.492;11.372;2022-08-01T03:54:05;29.90;29.20
18085;DHT22;9169;44.492;11.372;2022-08-01T03:56:33;29.80;29.20
18085;DHT22;9169;44.492;11.372;2022-08-01T03:59:00;29.80;29.20
18085;DHT22;9169;44.492;11.372;2022-08-01T04:01:28;29.80;29.20
18085;DHT22;9169;44.492;11.372;2022-08-01T04:03:57;29.80;29.20
18085;DHT22;9169;44.492;11.372;2022-08-01T04:06:24;29.80;29.30
18085;DHT22;9169;44.492;11.372;2022-08-01T04:08:51;29.80;29.30
18085;DHT22;9169;44.492;11.372;2022-08-01T04:11:22;29.70;29.20
18085;DHT22;9169;44.492;11.372;2022-08-01T04:13:49;29.70;29.30
18085;DHT22;9169;44.492;11.372;2022-08-01T04:16:17;29.60;29.30
18085;DHT22;9169;44.492;11.372;2022-08-01T04:18:43;29.50;29.30
18085;DHT22;9169;44.492;11.372;2022-08-01T04:21:11;29.50;29.30
18085;DHT22;9169;44.492;11.372;2022-08-01T04:23:39;29.50;29.30
18085;DHT22;9169;44.492;11.372;2022-08-01T04:26:07;29.50;29.40
18085;DHT22;9169;44.492;11.372;2022-08-01T04:28:36;29.50;29.30
18085;DHT22;9169;44.492;11.372;2022-08-01T04:31:04;29.50;29.30
18085;DHT22;9169;44.492;11.372;2022-08-01T04:33:32;29.50;29.30
18085;DHT22;9169;44.492;11.372;2022-08-01T04:36:02;29.60;29.30
18085;DHT22;9169;44.492;11.372;2022-08-01T04:38:32;29.60;29.30
18085;DHT22;9169;44.492;11.372;2022-08-01T04:41:02;29.60;29.30
18085;DHT22;9169;44.492;11.372;2022-08-01T04:43:31;29.70;29.30
18085;DHT22;9169;44.492;11.372;2022-08-01T04:45:58;29.70;29.30
18085;DHT22;9169;44.492;11.372;2022-08-01T04:48:26;29.70;29.20
18085;DHT22;9169;44.492;11.372;2022-08-01T04:50:52;29.70;29.30
18085;DHT22;9169;44.492;11.372;2022-08-01T04:53:20;29.70;29.30
18085;DHT22;9169;44.492;11.372;2022-08-01T04:55:49;29.70;29.20
18085;DHT22;9169;44.492;11.372;2022-08-01T04:58:16;29.80;29.30
18085;DHT22;9169;44.492;11.372;2022-08-01T05:00:43;29.80;29.40
18085;DHT22;9169;44.492;11.372;2022-08-01T05:03:10;29.80;29.50
18085;DHT22;9169;44.492;11.372;2022-08-01T05:05:37;29.80;29.50
18085;DHT22;9169;44.492;11.372;2022-08-01T05:08:04;29.80;29.40
18085;DHT22;9169;44.492;11.372;2022-08-01T05:10:31;29.80;29.30
18085;DHT22;9169;44.492;11.372;2022-08-01T05:12:59;29.90;29.40
18085;DHT22;9169;44.492;11.372;2022-08-01T05:15:26;29.90;29.50
18085;DHT22;9169;44.492;11.372;2022-08-01T05:17:53;29.90;29.60
18085;DHT22;9169;44.492;11.372;2022-08-01T05:20:20;29.90;30.00
18085;DHT22;9169;44.492;11.372;2022-08-01T05:22:47;29.90;29.60
18085;DHT22;9169;44.492;11.372;2022-08-01T05:25:14;29.90;29.70
18085;DHT22;9169;44.492;11.372;2022-08-01T05:27:40;30.00;29.70
18085;DHT22;9169;44.492;11.372;2022-08-01T05:30:09;30.00;29.60
18085;DHT22;9169;44.492;11.372;2022-08-01T05:32:36;30.10;29.60
18085;DHT22;9169;44.492;11.372;2022-08-01T05:35:03;30.20;29.60
18085;DHT22;9169;44.492;11.372;2022-08-01T05:37:30;30.20;29.50
18085;DHT22;9169;44.492;11.372;2022-08-01T05:39:57;30.20;29.50
18085;DHT22;9169;44.492;11.372;2022-08-01T05:42:24;30.20;29.50
18085;DHT22;9169;44.492;11.372;2022-08-01T05:44:51;30.20;29.50
18085;DHT22;9169;44.492;11.372;2022-08-01T05:47:19;30.20;29.50
18085;DHT22;9169;44.492;11.372;2022-08-01T05:49:46;30.20;29.60
18085;DHT22;9169;44.492;11.372;2022-08-01T05:52:13;30.20;29.60
18085;DHT22;9169;44.492;11.372;2022-08-01T05:54:39;30.30;29.70
18085;DHT22;9169;44.492;11.372;2022-08-01T05:57:06;30.30;29.70
18085;DHT22;9169;44.492;11.372;2022-08-01T05:59:33;30.30;29.80
18085;DHT22;9169;44.492;11.372;2022-08-01T06:02:00;30.40;29.70
18085;DHT22;9169;44.492;11.372;2022-08-01T06:04:28;30.40;29.70
18085;DHT22;9169;44.492;11.372;2022-08-01T06:06:55;30.40;29.70
18085;DHT22;9169;44.492;11.372;2022-08-01T06:09:22;30.50;29.80
18085;DHT22;9169;44.492;11.372;2022-08-01T06:11:49;30.50;29.70
18085;DHT22;9169;44.492;11.372;2022-08-01T06:14:16;30.60;29.70
18085;DHT22;9169;44.492;11.372;2022-08-01T06:16:42;30.60;29.70
18085;DHT22;9169;44.492;11.372;2022-08-01T06:19:09;30.90;29.80
18085;DHT22;9169;44.492;11.372;2022-08-01T06:21:37;30.70;29.60
18085;DHT22;9169;44.492;11.372;2022-08-01T06:24:04;30.90;29.70
18085;DHT22;9169;44.492;11.372;2022-08-01T06:26:31;30.90;29.60
18085;DHT22;9169;44.492;11.372;2022-08-01T06:28:58;31.00;29.60
18085;DHT22;9169;44.492;11.372;2022-08-01T06:31:25;31.00;29.60
18085;DHT22;9169;44.492;11.372;2022-08-01T06:33:52;31.10;29.60
18085;DHT22;9169;44.492;11.372;2022-08-01T06:36:19;31.10;29.50
18085;DHT22;9169;44.492;11.372;2022-08-01T06:38:47;31.10;29.50
18085;DHT22;9169;44.492;11.372;2022-08-01T06:41:14;31.20;29.50
18085;DHT22;9169;44.492;11.372;2022-08-01T06:43:41;31.20;29.50
18085;DHT22;9169;44.492;11.372;2022-08-01T06:46:08;31.30;29.60
18085;DHT22;9169;44.492;11.372;2022-08-01T06:48:35;31.30;29.60
18085;DHT22;9169;44.492;11.372;2022-08-01T06:51:04;31.40;29.60
18085;DHT22;9169;44.492;11.372;2022-08-01T06:53:42;31.40;29.60
18085;DHT22;9169;44.492;11.372;2022-08-01T06:56:10;31.50;29.50
18085;DHT22;9169;44.492;11.372;2022-08-01T06:58:37;31.50;29.50
18085;DHT22;9169;44.492;11.372;2022-08-01T07:01:04;31.60;29.60
18085;DHT22;9169;44.492;11.372;2022-08-01T07:03:32;31.60;29.50
18085;DHT22;9169;44.492;11.372;2022-08-01T07:05:59;31.70;29.60
18085;DHT22;9169;44.492;11.372;2022-08-01T07:08:26;31.80;29.60
18085;DHT22;9169;44.492;11.372;2022-08-01T07:10:53;31.70;29.50
18085;DHT22;9169;44.492;11.372;2022-08-01T07:13:22;31.80;29.50
18085;DHT22;9169;44.492;11.372;2022-08-01T07:15:50;31.80;29.50
18085;DHT22;9169;44.492;11.372;2022-08-01T07:18:17;31.80;29.50
18085;DHT22;9169;44.492;11.372;2022-08-01T07:20:44;31.90;29.50
18085;DHT22;9169;44.492;11.372;2022-08-01T07:23:11;31.90;29.50
18085;DHT22;9169;44.492;11.372;2022-08-01T07:25:38;31.90;29.50
18085;DHT22;9169;44.492;11.372;2022-08-01T07:28:05;31.80;29.40
18085;DHT22;9169;44.492;11.372;2022-08-01T07:30:33;32.00;29.50
18085;DHT22;9169;44.492;11.372;2022-08-01T07:33:00;32.00;29.50
18085;DHT22;9169;44.492;11.372;2022-08-01T07:35:27;31.90;29.40
18085;DHT22;9169;44.492;11.372;2022-08-01T07:37:54;32.10;29.50
18085;DHT22;9169;44.492;11.372;2022-08-01T07:40:20;32.10;29.50
18085;DHT22;9169;44.492;11.372;2022-08-01T07:42:47;32.10;29.50
18085;DHT22;9169;44.492;11.372;2022-08-01T07:45:14;32.20;29.60
18085;DHT22;9169;44.492;11.372;2022-08-01T07:47:42;32.20;29.60
18085;DHT22;9169;44.492;11.372;2022-08-01T07:50:09;32.20;29.50
18085;DHT22;9169;44.492;11.372;2022-08-01T07:52:37;32.30;29.50
18085;DHT22;9169;44.492;11.372;2022-08-01T07:55:05;32.30;29.60
18085;DHT22;9169;44.492;11.372;2022-08-01T07:57:32;32.40;29.60
18085;DHT22;9169;44.492;11.372;2022-08-01T07:59:58;32.40;29.50
18085;DHT22;9169;44.492;11.372;2022-08-01T08:02:25;32.40;29.50
18085;DHT22;9169;44.492;11.372;2022-08-01T08:04:53;32.40;29.50
18085;DHT22;9169;44.492;11.372;2022-08-01T08:07:20;32.50;29.50
18085;DHT22;9169;44.492;11.372;2022-08-01T08:09:47;32.50;29.50
18085;DHT22;9169;44.492;11.372;2022-08-01T08:12:13;32.60;29.60
18085;DHT22;9169;44.492;11.372;2022-08-01T08:14:40;32.60;29.60
18085;DHT22;9169;44.492;11.372;2022-08-01T08:17:07;32.60;29.60
18085;DHT22;9169;44.492;11.372;2022-08-01T08:19:33;32.70;29.60
18085;DHT22;9169;44.492;11.372;2022-08-01T08:22:03;32.70;29.60
18085;DHT22;9169;44.492;11.372;2022-08-01T08:24:30;32.70;29.60
18085;DHT22;9169;44.492;11.372;2022-08-01T08:26:57;32.70;29.60
18085;DHT22;9169;44.492;11.372;2022-08-01T08:29:25;32.70;29.60
18085;DHT22;9169;44.492;11.372;2022-08-01T08:31:53;32.80;29.60
18085;DHT22;9169;44.492;11.372;2022-08-01T08:34:20;32.80;29.60
18085;DHT22;9169;44.492;11.372;2022-08-01T08:36:46;32.90;29.70
18085;DHT22;9169;44.492;11.372;2022-08-01T08:39:15;32.90;29.70
18085;DHT22;9169;44.492;11.372;2022-08-01T08:41:41;33.00;29.70
18085;DHT22;9169;44.492;11.372;2022-08-01T08:44:08;33.10;29.70
18085;DHT22;9169;44.492;11.372;2022-08-01T08:46:38;33.10;29.70
18085;DHT22;9169;44.492;11.372;2022-08-01T08:49:07;33.20;29.70
18085;DHT22;9169;44.492;11.372;2022-08-01T08:51:34;33.20;29.70
18085;DHT22;9169;44.492;11.372;2022-08-01T08:54:05;33.20;29.70
18085;DHT22;9169;44.492;11.372;2022-08-01T08:56:34;33.30;29.70
18085;DHT22;9169;44.492;11.372;2022-08-01T08:59:02;33.30;29.70
18085;DHT22;9169;44.492;11.372;2022-08-01T09:01:30;33.40;29.80
18085;DHT22;9169;44.492;11.372;2022-08-01T09:03:58;33.40;29.70
18085;DHT22;9169;44.492;11.372;2022-08-01T09:06:24;33.50;29.70
18085;DHT22;9169;44.492;11.372;2022-08-01T09:08:51;33.50;29.70
18085;DHT22;9169;44.492;11.372;2022-08-01T09:11:19;33.60;29.70
18085;DHT22;9169;44.492;11.372;2022-08-01T09:16:42;33.70;29.70
18085;DHT22;9169;44.492;11.372;2022-08-01T09:19:10;33.80;29.60
18085;DHT22;9169;44.492;11.372;2022-08-01T09:21:37;33.80;29.60
18085;DHT22;9169;44.492;11.372;2022-08-01T09:24:12;34.00;29.70
18085;DHT22;9169;44.492;11.372;2022-08-01T09:26:39;34.00;29.70
18085;DHT22;9169;44.492;11.372;2022-08-01T09:29:07;34.20;29.70
18085;DHT22;9169;44.492;11.372;2022-08-01T09:31:39;34.30;29.60
18085;DHT22;9169;44.492;11.372;2022-08-01T09:34:07;34.40;29.60
18085;DHT22;9169;44.492;11.372;2022-08-01T09:36:45;34.60;29.60
18085;DHT22;9169;44.492;11.372;2022-08-01T09:39:14;34.80;29.70
18085;DHT22;9169;44.492;11.372;2022-08-01T09:41:41;34.90;29.70
18085;DHT22;9169;44.492;11.372;2022-08-01T09:44:07;35.20;29.80
18085;DHT22;9169;44.492;11.372;2022-08-01T09:46:34;35.40;29.70
18085;DHT22;9169;44.492;11.372;2022-08-01T09:49:02;35.60;29.80
18085;DHT22;9169;44.492;11.372;2022-08-01T09:51:33;35.90;29.70
18085;DHT22;9169;44.492;11.372;2022-08-01T09:54:01;36.00;29.60
18085;DHT22;9169;44.492;11.372;2022-08-01T09:56:35;36.20;29.70
18085;DHT22;9169;44.492;11.372;2022-08-01T09:59:02;36.50;29.80
18085;DHT22;9169;44.492;11.372;2022-08-01T10:01:40;36.80;29.70
18085;DHT22;9169;44.492;11.372;2022-08-01T10:04:09;36.90;29.20
18085;DHT22;9169;44.492;11.372;2022-08-01T10:06:37;37.10;29.50
18085;DHT22;9169;44.492;11.372;2022-08-01T10:09:04;37.40;29.60
18085;DHT22;9169;44.492;11.372;2022-08-01T10:11:31;37.60;29.50
18085;DHT22;9169;44.492;11.372;2022-08-01T10:13:58;37.80;29.30
18085;DHT22;9169;44.492;11.372;2022-08-01T10:16:25;37.90;29.30
18085;DHT22;9169;44.492;11.372;2022-08-01T10:18:53;38.20;29.20
18085;DHT22;9169;44.492;11.372;2022-08-01T10:21:20;38.30;29.10
18085;DHT22;9169;44.492;11.372;2022-08-01T10:23:54;38.60;29.40
18085;DHT22;9169;44.492;11.372;2022-08-01T10:26:24;38.80;29.30
18085;DHT22;9169;44.492;11.372;2022-08-01T10:28:51;39.00;29.20
18085;DHT22;9169;44.492;11.372;2022-08-01T10:31:18;39.30;29.20
18085;DHT22;9169;44.492;11.372;2022-08-01T10:33:46;39.70;29.10
18085;DHT22;9169;44.492;11.372;2022-08-01T10:36:13;40.30;29.00
18085;DHT22;9169;44.492;11.372;2022-08-01T10:38:40;40.90;28.70
18085;DHT22;9169;44.492;11.372;2022-08-01T10:41:08;42.00;28.60
18085;DHT22;9169;44.492;11.372;2022-08-01T10:43:35;43.30;28.00
18085;DHT22;9169;44.492;11.372;2022-08-01T10:46:03;44.70;27.30
18085;DHT22;9169;44.492;11.372;2022-08-01T10:48:31;46.00;26.50
18085;DHT22;9169;44.492;11.372;2022-08-01T10:51:00;47.00;25.60
18085;DHT22;9169;44.492;11.372;2022-08-01T10:53:28;47.70;24.30
18085;DHT22;9169;44.492;11.372;2022-08-01T10:55:57;48.10;24.70
18085;DHT22;9169;44.492;11.372;2022-08-01T10:58:27;48.60;24.30
18085;DHT22;9169;44.492;11.372;2022-08-01T11:01:15;49.10;24.20
18085;DHT22;9169;44.492;11.372;2022-08-01T11:03:42;49.80;24.20
18085;DHT22;9169;44.492;11.372;2022-08-01T11:06:15;50.40;23.80
18085;DHT22;9169;44.492;11.372;2022-08-01T11:08:42;50.80;23.60
18085;DHT22;9169;44.492;11.372;2022-08-01T11:11:09;51.10;23.60
18085;DHT22;9169;44.492;11.372;2022-08-01T11:16:28;51.90;22.80
18085;DHT22;9169;44.492;11.372;2022-08-01T11:18:55;51.70;22.90
18085;DHT22;9169;44.492;11.372;2022-08-01T11:21:22;51.90;22.60
18085;DHT22;9169;44.492;11.372;2022-08-01T11:24:09;52.00;23.00
18085;DHT22;9169;44.492;11.372;2022-08-01T11:26:36;52.50;22.70
18085;DHT22;9169;44.492;11.372;2022-08-01T11:29:16;52.60;22.00
18085;DHT22;9169;44.492;11.372;2022-08-01T11:31:45;52.10;20.30
18085;DHT22;9169;44.492;11.372;2022-08-01T11:34:12;51.80;21.50
18085;DHT22;9169;44.492;11.372;2022-08-01T11:36:38;51.80;22.30
18085;DHT22;9169;44.492;11.372;2022-08-01T11:39:12;52.50;22.90
18085;DHT22;9169;44.492;11.372;2022-08-01T11:41:40;53.10;22.20
18085;DHT22;9169;44.492;11.372;2022-08-01T11:44:07;53.40;22.40
18085;DHT22;9169;44.492;11.372;2022-08-01T11:46:53;53.90;22.50
18085;DHT22;9169;44.492;11.372;2022-08-01T11:49:28;54.20;22.00
18085;DHT22;9169;44.492;11.372;2022-08-01T11:52:02;54.20;21.50
18085;DHT22;9169;44.492;11.372;2022-08-01T11:54:30;54.40;21.50
18085;DHT22;9169;44.492;11.372;2022-08-01T11:56:58;54.40;20.60
18085;DHT22;9169;44.492;11.372;2022-08-01T11:59:25;53.70;20.40
18085;DHT22;9169;44.492;11.372;2022-08-01T12:01:53;53.70;21.90
18085;DHT22;9169;44.492;11.372;2022-08-01T12:04:20;54.10;22.20
18085;DHT22;9169;44.492;11.372;2022-08-01T12:06:47;54.70;21.20
18085;DHT22;9169;44.492;11.372;2022-08-01T12:09:17;55.10;21.20
18085;DHT22;9169;44.492;11.372;2022-08-01T12:11:44;55.30;21.70
18085;DHT22;9169;44.492;11.372;2022-08-01T12:14:15;55.70;22.20
18085;DHT22;9169;44.492;11.372;2022-08-01T12:16:47;56.00;21.70
18085;DHT22;9169;44.492;11.372;2022-08-01T12:19:18;55.90;21.20
18085;DHT22;9169;44.492;11.372;2022-08-01T12:21:45;55.70;20.60
18085;DHT22;9169;44.492;11.372;2022-08-01T12:24:12;55.50;20.90
18085;DHT22;9169;44.492;11.372;2022-08-01T12:26:39;55.50;21.50
18085;DHT22;9169;44.492;11.372;2022-08-01T12:29:06;55.70;21.30
18085;DHT22;9169;44.492;11.372;2022-08-01T12:31:34;55.90;21.70
18085;DHT22;9169;44.492;11.372;2022-08-01T12:36:47;55.50;20.10
18085;DHT22;9169;44.492;11.372;2022-08-01T12:39:14;55.30;20.90
18085;DHT22;9169;44.492;11.372;2022-08-01T12:41:42;55.30;20.80
18085;DHT22;9169;44.492;11.372;2022-08-01T12:44:12;55.20;21.20
18085;DHT22;9169;44.492;11.372;2022-08-01T12:46:39;55.40;21.50
18085;DHT22;9169;44.492;11.372;2022-08-01T12:49:06;55.90;22.00
18085;DHT22;9169;44.492;11.372;2022-08-01T12:51:33;56.10;20.90
18085;DHT22;9169;44.492;11.372;2022-08-01T12:54:02;56.30;21.70
18085;DHT22;9169;44.492;11.372;2022-08-01T12:56:32;56.70;21.70
18085;DHT22;9169;44.492;11.372;2022-08-01T12:58:59;56.40;19.90
18085;DHT22;9169;44.492;11.372;2022-08-01T13:01:26;56.20;20.80
18085;DHT22;9169;44.492;11.372;2022-08-01T13:03:57;56.20;21.10
18085;DHT22;9169;44.492;11.372;2022-08-01T13:06:23;56.30;21.50
18085;DHT22;9169;44.492;11.372;2022-08-01T13:08:54;56.70;21.20
18085;DHT22;9169;44.492;11.372;2022-08-01T13:11:22;56.90;20.70
18085;DHT22;9169;44.492;11.372;2022-08-01T13:13:53;56.70;20.60
18085;DHT22;9169;44.492;11.372;2022-08-01T13:16:22;56.60;20.80
18085;DHT22;9169;44.492;11.372;2022-08-01T13:18:50;56.50;23.50
18085;DHT22;9169;44.492;11.372;2022-08-01T13:21:18;56.30;21.00
18085;DHT22;9169;44.492;11.372;2022-08-01T13:23:59;56.50;21.60
18085;DHT22;9169;44.492;11.372;2022-08-01T13:26:42;56.80;21.30
18085;DHT22;9169;44.492;11.372;2022-08-01T13:29:09;56.90;20.60
18085;DHT22;9169;44.492;11.372;2022-08-01T13:31:36;56.80;19.60
18085;DHT22;9169;44.492;11.372;2022-08-01T13:34:03;56.40;20.40
18085;DHT22;9169;44.492;11.372;2022-08-01T13:36:31;56.10;19.60
18085;DHT22;9169;44.492;11.372;2022-08-01T13:38:58;55.80;20.40
18085;DHT22;9169;44.492;11.372;2022-08-01T13:41:43;56.00;21.10
18085;DHT22;9169;44.492;11.372;2022-08-01T13:44:10;56.10;21.10
18085;DHT22;9169;44.492;11.372;2022-08-01T13:46:38;56.10;21.00
18085;DHT22;9169;44.492;11.372;2022-08-01T13:49:05;56.00;20.70
18085;DHT22;9169;44.492;11.372;2022-08-01T13:51:32;55.90;20.60
18085;DHT22;9169;44.492;11.372;2022-08-01T13:53:59;55.80;19.60
18085;DHT22;9169;44.492;11.372;2022-08-01T13:56:26;55.40;20.00
18085;DHT22;9169;44.492;11.372;2022-08-01T13:58:55;55.40;21.30
18085;DHT22;9169;44.492;11.372;2022-08-01T14:01:22;55.80;21.60
18085;DHT22;9169;44.492;11.372;2022-08-01T14:03:48;56.30;21.60
18085;DHT22;9169;44.492;11.372;2022-08-01T14:06:16;56.30;20.90
18085;DHT22;9169;44.492;11.372;2022-08-01T14:08:43;56.20;21.20
18085;DHT22;9169;44.492;11.372;2022-08-01T14:11:10;56.30;20.80
18085;DHT22;9169;44.492;11.372;2022-08-01T14:13:37;56.10;20.50
18085;DHT22;9169;44.492;11.372;2022-08-01T14:16:07;56.00;21.30
18085;DHT22;9169;44.492;11.372;2022-08-01T14:18:33;56.00;20.90
18085;DHT22;9169;44.492;11.372;2022-08-01T14:21:00;56.10;21.30
18085;DHT22;9169;44.492;11.372;2022-08-01T14:23:27;56.20;21.50
18085;DHT22;9169;44.492;11.372;2022-08-01T14:25:54;56.30;21.30
18085;DHT22;9169;44.492;11.372;2022-08-01T14:28:21;56.00;21.20
18085;DHT22;9169;44.492;11.372;2022-08-01T14:30:49;55.40;20.90
18085;DHT22;9169;44.492;11.372;2022-08-01T14:33:17;54.50;21.40
18085;DHT22;9169;44.492;11.372;2022-08-01T14:35:44;53.60;21.20
18085;DHT22;9169;44.492;11.372;2022-08-01T14:38:10;53.00;21.60
18085;DHT22;9169;44.492;11.372;2022-08-01T14:40:37;52.30;21.80
18085;DHT22;9169;44.492;11.372;2022-08-01T14:43:05;51.30;21.80
18085;DHT22;9169;44.492;11.372;2022-08-01T14:45:32;50.40;22.30
18085;DHT22;9169;44.492;11.372;2022-08-01T14:47:59;49.50;22.80
18085;DHT22;9169;44.492;11.372;2022-08-01T14:50:27;48.80;22.90
18085;DHT22;9169;44.492;11.372;2022-08-01T14:52:54;47.70;22.10
18085;DHT22;9169;44.492;11.372;2022-08-01T14:55:21;47.40;23.40
18085;DHT22;9169;44.492;11.372;2022-08-01T14:57:50;46.90;23.20
18085;DHT22;9169;44.492;11.372;2022-08-01T15:00:17;46.50;23.50
18085;DHT22;9169;44.492;11.372;2022-08-01T15:02:44;46.00;23.70
18085;DHT22;9169;44.492;11.372;2022-08-01T15:05:11;45.60;23.50
18085;DHT22;9169;44.492;11.372;2022-08-01T15:07:39;45.30;23.50
18085;DHT22;9169;44.492;11.372;2022-08-01T15:10:06;45.00;23.60
18085;DHT22;9169;44.492;11.372;2022-08-01T15:12:33;44.70;23.80
18085;DHT22;9169;44.492;11.372;2022-08-01T15:15:00;44.60;24.10
18085;DHT22;9169;44.492;11.372;2022-08-01T15:17:27;44.50;24.30
18085;DHT22;9169;44.492;11.372;2022-08-01T15:19:56;44.40;24.50
18085;DHT22;9169;44.492;11.372;2022-08-01T15:22:24;44.50;24.70
18085;DHT22;9169;44.492;11.372;2022-08-01T15:24:52;44.70;24.30
18085;DHT22;9169;44.492;11.372;2022-08-01T15:27:19;44.70;23.40
18085;DHT22;9169;44.492;11.372;2022-08-01T15:29:46;44.50;23.10
18085;DHT22;9169;44.492;11.372;2022-08-01T15:32:14;44.20;23.70
18085;DHT22;9169;44.492;11.372;2022-08-01T15:34:41;44.20;24.10
18085;DHT22;9169;44.492;11.372;2022-08-01T15:37:08;43.90;23.60
18085;DHT22;9169;44.492;11.372;2022-08-01T15:39:35;43.70;23.90
18085;DHT22;9169;44.492;11.372;2022-08-01T15:42:05;43.60;24.10
18085;DHT22;9169;44.492;11.372;2022-08-01T15:44:33;43.40;24.20